createdAt,value
2022-09-26T05:01:32.755Z,99328.46
2022-09-26T05:14:09.200Z,99322.79
2022-09-26T05:21:05.189Z,99330.41
2022-09-26T05:26:40.192Z,99328.70
2022-09-26T05:27:55.756Z,99332.56
2022-09-26T05:37:02.935Z,99319.73
2022-09-26T05:43:04.841Z,99318.40
2022-09-26T05:54:35.020Z,99311.94
2022-09-26T05:57:17.850Z,99311.48
2022-09-26T06:00:45.865Z,99311.63
2022-09-26T06:04:28.383Z,99308.08
2022-09-26T06:07:52.425Z,99307.41
2022-09-26T06:10:48.354Z,99302.05
2022-09-26T06:16:56.698Z,99293.82
2022-09-26T06:19:30.834Z,99294.50
2022-09-26T06:22:18.914Z,99292.04
2022-09-26T06:25:00.072Z,99298.31
2022-09-26T06:36:02.546Z,99282.21
2022-09-26T06:38:57.986Z,99285.64
2022-09-26T07:01:29.770Z,99292.34
2022-09-26T07:04:18.624Z,99296.27
2022-09-26T07:07:08.529Z,99304.84
2022-09-26T07:09:45.080Z,99305.13
2022-09-26T07:12:36.194Z,99309.54
2022-09-26T07:15:24.162Z,99312.86
2022-09-26T07:17:53.522Z,99319.13
2022-09-26T07:20:42.152Z,99325.73
2022-09-26T07:23:27.568Z,99333.95
2022-09-26T07:25:58.628Z,99336.81
2022-09-26T07:28:35.878Z,99345.30
2022-09-26T07:31:39.466Z,99347.92
2022-09-26T07:34:57.952Z,99347.34
2022-09-26T07:37:49.112Z,99359.73
2022-09-26T07:53:30.652Z,99392.48
2022-09-26T07:56:26.227Z,99392.86
2022-09-26T07:59:04.683Z,99390.17
2022-09-26T08:02:18.438Z,99394.44
2022-09-26T08:05:19.237Z,99411.51
2022-09-26T08:07:56.929Z,99411.17
2022-09-26T08:11:43.386Z,99400.80
2022-09-26T09:09:14.687Z,99352.70
2022-09-26T09:12:45.547Z,99316.21
2022-09-26T09:16:10.437Z,99332.58
2022-09-26T09:19:15.673Z,99328.99
2022-09-26T09:22:18.892Z,99314.30
2022-09-26T09:29:10.536Z,99303.23
2022-09-26T09:32:53.132Z,99311.81
2022-09-26T09:36:14.991Z,99312.88
2022-09-26T09:38:54.936Z,99280.42
2022-09-26T10:38:19.399Z,99336.78
2022-09-26T10:44:01.490Z,99330.98
2022-09-26T10:51:54.568Z,99322.84
2022-09-26T10:58:45.719Z,99324.29
2022-09-26T11:02:17.604Z,99324.60
2022-09-26T11:09:14.209Z,99327.70
2022-09-26T11:12:30.367Z,99315.08
2022-09-26T11:12:39.971Z,99314.70
2022-09-26T11:23:54.031Z,99300.55
2022-09-26T12:38:10.928Z,99249.73
2022-09-26T12:40:56.986Z,99245.59
2022-09-26T12:44:12.470Z,99239.71
2022-09-26T12:47:24.853Z,99224.20
2022-09-26T12:53:43.026Z,99221.14
2022-09-26T12:56:41.991Z,99222.33
2022-09-26T12:59:40.776Z,99226.91
2022-09-26T13:02:48.117Z,99233.52
2022-09-26T13:05:56.964Z,99228.87
2022-09-26T13:08:34.802Z,99218.20
2022-09-26T13:16:39.703Z,99202.09
2022-09-26T13:32:40.063Z,99184.55
2022-09-26T13:35:47.616Z,99191.35
2022-09-26T13:38:46.020Z,99195.38
2022-09-26T13:41:39.034Z,99197.98
2022-09-26T13:44:48.508Z,99200.06
2022-09-26T13:47:15.714Z,99193.81
2022-09-26T13:50:31.571Z,99198.80
2022-09-26T13:54:30.760Z,99192.86
2022-09-26T13:58:17.553Z,99193.30
2022-09-26T14:01:41.845Z,99199.10
2022-09-26T15:43:34.504Z,99144.22
2022-09-26T15:46:05.797Z,99144.58
2022-09-26T15:48:42.511Z,99143.70
2022-09-26T15:51:20.114Z,99141.73
2022-09-26T16:02:28.415Z,99136.02
2022-09-26T16:09:50.609Z,99142.00
2022-09-26T16:12:23.216Z,99132.80
2022-09-26T16:14:59.306Z,99131.11
2022-09-26T16:17:35.467Z,99132.08
2022-09-26T16:20:04.354Z,99137.52
2022-09-26T16:22:39.395Z,99139.91
2022-09-26T16:25:14.947Z,99137.36
2022-09-26T16:27:41.724Z,99125.63
2022-09-26T16:30:22.946Z,99120.75
2022-09-26T16:32:54.713Z,99120.14
2022-09-26T16:35:29.507Z,99117.09
2022-09-26T16:38:24.494Z,99115.55
2022-09-26T16:40:53.963Z,99111.44
2022-09-26T16:43:31.820Z,99102.98
2022-09-26T16:46:04.807Z,99106.40
2022-09-26T16:48:50.934Z,99105.96
2022-09-26T16:51:17.899Z,99104.27
2022-09-26T16:54:13.159Z,99101.52
2022-09-26T16:56:46.179Z,99100.88
2022-09-26T16:59:31.777Z,99101.67
2022-09-26T17:02:01.753Z,99106.52
2022-09-26T17:04:33.974Z,99112.75
2022-09-26T17:07:09.668Z,99115.42
2022-09-26T17:09:41.777Z,99121.70
2022-09-26T17:12:30.129Z,99121.02
2022-09-26T17:15:00.169Z,99122.98
2022-09-26T17:17:31.248Z,99133.83
2022-09-26T17:20:05.565Z,99129.28
2022-09-26T17:22:36.345Z,99124.05
2022-09-26T17:25:04.968Z,99127.60
2022-09-26T17:27:33.768Z,99119.56
2022-09-26T17:30:04.399Z,99124.79
2022-09-26T17:32:43.732Z,99119.89
2022-09-26T17:35:16.615Z,99123.62
2022-09-26T17:37:43.689Z,99130.02
2022-09-26T17:40:22.616Z,99128.84
2022-09-26T17:42:59.492Z,99126.57
2022-09-26T17:45:33.951Z,99118.92
2022-09-26T17:48:16.447Z,99113.73
2022-09-26T17:50:56.250Z,99113.11
2022-09-26T17:53:32.671Z,99117.93
2022-09-26T17:56:05.858Z,99115.22
2022-09-26T17:58:35.677Z,99112.17
2022-09-26T18:01:11.090Z,99118.35
2022-09-26T18:03:43.368Z,99121.12
2022-09-26T18:06:11.608Z,99117.84
2022-09-26T18:08:39.975Z,99113.15
2022-09-26T18:11:14.617Z,99108.98
2022-09-26T18:13:49.835Z,99107.98
2022-09-26T18:16:17.913Z,99107.64
2022-09-26T18:19:06.087Z,99106.59
2022-09-26T18:21:35.095Z,99111.57
2022-09-26T18:24:07.670Z,99112.69
2022-09-26T18:26:48.024Z,99112.35
2022-09-26T18:29:37.778Z,99111.25
2022-09-26T18:32:25.020Z,99110.58
2022-09-26T18:35:01.140Z,99109.23
2022-09-26T18:37:36.986Z,99107.66
2022-09-26T18:40:18.663Z,99104.07
2022-09-26T18:46:45.852Z,99105.27
2022-09-26T18:49:46.521Z,99096.88
2022-09-26T18:52:15.921Z,99091.35
2022-09-26T18:56:06.284Z,99091.94
2022-09-26T18:58:23.740Z,99094.89
2022-09-26T19:00:56.242Z,99095.70
2022-09-26T19:03:24.900Z,99097.98
2022-09-26T19:05:58.834Z,99099.75
2022-09-26T19:08:33.640Z,99097.55
2022-09-26T19:11:05.031Z,99094.55
2022-09-26T19:13:34.497Z,99087.08
2022-09-26T19:16:04.519Z,99083.50
2022-09-26T19:18:31.666Z,99074.28
2022-09-26T19:20:59.771Z,99071.84
2022-09-26T19:23:33.443Z,99078.52
2022-09-26T20:42:26.398Z,99075.98
2022-09-26T23:52:44.881Z,98951.39
